createdAt,value
2018-04-23T00:00:55.812Z,87.70
2018-04-23T00:01:55.696Z,86.35
2018-04-23T00:02:55.608Z,86.35
2018-04-23T00:03:55.520Z,87.41
2018-04-23T00:04:55.428Z,87.88
2018-04-23T00:05:55.374Z,89.90
2018-04-23T00:06:55.269Z,90.86
2018-04-23T00:07:55.165Z,91.10
2018-04-23T00:08:55.076Z,90.72
2018-04-23T00:09:54.989Z,91.67
2018-04-23T00:10:54.933Z,93.59
2018-04-23T00:11:54.810Z,94.64
2018-04-23T00:12:54.719Z,95.17
2018-04-23T00:13:54.633Z,97.18
2018-04-23T00:14:54.546Z,97.66
2018-04-23T00:15:54.485Z,98.24
2018-04-23T00:16:54.366Z,99.43
2018-04-23T00:17:54.279Z,99.99
2018-04-23T00:18:54.191Z,99.43
2018-04-23T00:19:54.099Z,97.33
2018-04-23T00:20:54.040Z,97.85
2018-04-23T00:21:53.922Z,96.89
2018-04-23T00:22:53.834Z,97.28
2018-04-23T00:23:53.743Z,98.14
2018-04-23T00:24:54.489Z,96.80
2018-04-23T00:25:53.595Z,92.58
2018-04-23T00:26:53.478Z,94.79
2018-04-23T00:27:53.392Z,93.54
2018-04-23T00:28:53.299Z,93.16
2018-04-23T00:29:53.209Z,93.07
2018-04-23T00:30:53.151Z,92.68
2018-04-23T00:31:53.035Z,95.65
2018-04-23T00:32:52.949Z,95.36
2018-04-23T00:33:52.862Z,95.84
2018-04-23T00:34:52.767Z,93.35
2018-04-23T00:35:52.705Z,94.50
2018-04-23T00:36:52.588Z,95.17
2018-04-23T00:37:52.499Z,95.65
2018-04-23T00:38:52.409Z,95.36
2018-04-23T00:39:52.323Z,96.13
2018-04-23T00:40:52.264Z,96.89
2018-04-23T00:41:52.144Z,97.13
2018-04-23T00:42:53.055Z,96.66
2018-04-23T00:43:51.968Z,99.24
2018-04-23T00:44:51.879Z,99.99
2018-04-23T00:45:51.789Z,99.52
2018-04-23T00:46:51.821Z,99.99
2018-04-23T00:47:51.612Z,99.99
2018-04-23T00:48:51.533Z,99.99
2018-04-23T00:49:51.434Z,99.99
2018-04-23T00:50:51.347Z,99.99
2018-04-23T00:51:51.290Z,99.99
2018-04-23T00:52:51.166Z,99.99
2018-04-23T00:53:51.076Z,99.99
2018-04-23T00:54:50.990Z,99.99
2018-04-23T00:55:50.901Z,99.99
2018-04-23T00:56:50.839Z,97.80
2018-04-23T00:57:50.724Z,98.28
2018-04-23T00:58:50.635Z,99.99
2018-04-23T00:59:50.549Z,99.99
2018-04-23T01:00:50.457Z,99.99
2018-04-23T01:01:50.396Z,99.99
2018-04-23T01:02:50.278Z,99.99
2018-04-23T01:03:50.190Z,99.99
2018-04-23T01:04:50.102Z,99.99
2018-04-23T01:05:50.013Z,99.99
2018-04-23T01:06:49.950Z,99.99
2018-04-23T01:07:49.833Z,99.99
2018-04-23T01:08:49.748Z,99.99
2018-04-23T01:09:49.655Z,99.99
2018-04-23T01:10:49.566Z,99.52
2018-04-23T01:11:49.508Z,99.99
2018-04-23T01:12:49.390Z,99.99
2018-04-23T01:13:49.297Z,99.99
2018-04-23T01:14:49.304Z,99.99
2018-04-23T01:15:49.123Z,99.99
2018-04-23T01:16:49.062Z,99.99
2018-04-23T01:17:48.942Z,99.99
2018-04-23T01:18:48.857Z,99.99
2018-04-23T01:19:48.765Z,99.99
2018-04-23T01:20:48.675Z,99.99
2018-04-23T01:21:48.719Z,99.99
2018-04-23T01:22:48.500Z,99.99
2018-04-23T01:23:48.406Z,99.99
2018-04-23T01:24:48.319Z,99.99
2018-04-23T01:25:48.232Z,99.99
2018-04-23T01:26:48.173Z,99.99
2018-04-23T01:27:48.056Z,99.99
2018-04-23T01:28:48.057Z,99.99
2018-04-23T01:29:47.871Z,99.99
2018-04-23T01:30:47.781Z,99.99
2018-04-23T01:31:47.722Z,99.99
2018-04-23T01:32:47.604Z,99.99
2018-04-23T01:33:47.516Z,99.99
2018-04-23T01:34:47.428Z,99.48
2018-04-23T01:35:47.433Z,99.72
2018-04-23T01:36:47.279Z,99.52
2018-04-23T01:37:47.158Z,99.43
2018-04-23T01:38:47.075Z,98.28
2018-04-23T01:39:46.986Z,98.66
2018-04-23T01:40:46.890Z,99.05
2018-04-23T01:41:46.855Z,99.99
2018-04-23T01:42:46.804Z,99.99
2018-04-23T01:43:46.623Z,99.99
2018-04-23T01:44:46.536Z,99.99
2018-04-23T01:45:46.446Z,99.99
2018-04-23T01:46:46.384Z,99.99
2018-04-23T01:47:46.267Z,99.99
2018-04-23T01:48:46.177Z,99.99
2018-04-23T01:49:46.179Z,99.99
2018-04-23T01:50:46.002Z,99.99
2018-04-23T01:51:45.912Z,99.99
2018-04-23T01:52:45.853Z,99.99
2018-04-23T01:53:45.734Z,99.99
2018-04-23T01:54:45.643Z,99.99
2018-04-23T01:55:45.555Z,99.99
2018-04-23T01:56:45.557Z,99.99
2018-04-23T01:57:45.409Z,99.99
2018-04-23T01:58:45.286Z,99.99
2018-04-23T01:59:45.196Z,99.99
2018-04-23T02:00:45.105Z,99.99
2018-04-23T02:01:45.019Z,99.99
2018-04-23T02:02:44.959Z,99.99
2018-04-23T02:03:44.953Z,99.99
2018-04-23T02:04:44.750Z,99.99
2018-04-23T02:05:44.662Z,99.99
2018-04-23T02:06:44.575Z,99.99
2018-04-23T02:07:44.511Z,99.99
2018-04-23T02:08:44.393Z,99.99
2018-04-23T02:09:44.305Z,99.99
2018-04-23T02:10:44.309Z,99.99
2018-04-23T02:11:44.128Z,99.99
2018-04-23T02:12:44.067Z,99.99
2018-04-23T02:13:43.948Z,99.99
2018-04-23T02:14:43.859Z,99.99
2018-04-23T02:15:43.773Z,99.99
2018-04-23T02:16:43.683Z,99.99
2018-04-23T02:17:43.717Z,99.99
2018-04-23T02:18:43.504Z,99.99
2018-04-23T02:19:43.420Z,99.99
2018-04-23T02:20:43.328Z,99.99
2018-04-23T02:21:43.237Z,99.99
2018-04-23T02:22:43.181Z,99.99
2018-04-23T02:23:43.063Z,99.99
2018-04-23T02:24:43.077Z,99.99
2018-04-23T02:25:42.881Z,99.99
2018-04-23T02:26:43.516Z,99.99
2018-04-23T02:27:43.521Z,99.99
2018-04-23T02:28:42.616Z,99.99
2018-04-23T02:29:42.524Z,99.99
2018-04-23T02:30:42.443Z,99.99
2018-04-23T02:31:42.440Z,99.99
2018-04-23T02:32:42.290Z,99.99
2018-04-23T02:33:42.173Z,99.99
2018-04-23T02:34:42.082Z,99.99
2018-04-23T02:35:42.063Z,99.99
2018-04-23T02:36:41.905Z,99.99
2018-04-23T02:37:41.853Z,99.99
2018-04-23T02:38:41.723Z,99.99
2018-04-23T02:39:41.636Z,99.99
2018-04-23T02:40:41.544Z,99.99
2018-04-23T02:41:41.461Z,99.99
2018-04-23T02:42:41.404Z,99.99
2018-04-23T02:43:41.278Z,99.99
2018-04-23T02:44:41.189Z,99.99
2018-04-23T02:45:41.100Z,99.99
2018-04-23T02:46:41.010Z,99.99
2018-04-23T02:47:40.950Z,99.99
2018-04-23T02:48:40.835Z,99.99
2018-04-23T02:49:40.744Z,99.99
2018-04-23T02:50:40.655Z,99.99
2018-04-23T02:51:40.564Z,99.99
2018-04-23T02:52:40.501Z,99.99
2018-04-23T02:53:40.384Z,99.99
2018-04-23T02:54:40.294Z,99.99
2018-04-23T02:55:40.207Z,99.99
2018-04-23T02:56:40.120Z,99.99
2018-04-23T02:57:40.534Z,99.99
2018-04-23T02:58:39.945Z,99.99
2018-04-23T02:59:39.890Z,99.99
2018-04-23T03:00:39.758Z,99.99
2018-04-23T03:01:39.671Z,99.99
2018-04-23T03:02:39.622Z,99.99
2018-04-23T03:03:39.491Z,99.99
2018-04-23T03:04:39.400Z,99.99
2018-04-23T03:05:39.312Z,99.99
2018-04-23T03:06:39.225Z,99.99
2018-04-23T03:07:39.155Z,99.99
2018-04-23T03:08:39.072Z,99.99
2018-04-23T03:09:38.954Z,99.99
2018-04-23T03:10:38.870Z,99.99
2018-04-23T03:11:38.780Z,99.99
2018-04-23T03:12:38.689Z,99.99
2018-04-23T03:13:38.631Z,99.99
2018-04-23T03:14:38.510Z,99.99
2018-04-23T03:15:38.424Z,99.99
2018-04-23T03:16:38.332Z,99.99
2018-04-23T03:17:38.241Z,99.71
2018-04-23T03:18:38.183Z,99.71
2018-04-23T03:19:38.061Z,99.14
2018-04-23T03:20:37.970Z,99.14
2018-04-23T03:21:37.880Z,99.52
2018-04-23T03:22:37.794Z,99.43
2018-04-23T03:23:37.736Z,99.71
2018-04-23T03:24:37.620Z,99.62
2018-04-23T03:25:37.525Z,99.24
2018-04-23T03:26:37.439Z,98.90
2018-04-23T03:27:37.346Z,98.85
2018-04-23T03:28:37.299Z,98.47
2018-04-23T03:29:37.168Z,98.28
2018-04-23T03:30:37.384Z,98.57
2018-04-23T03:31:36.993Z,99.24
2018-04-23T03:32:36.900Z,98.85
2018-04-23T03:33:36.843Z,99.33
2018-04-23T03:34:36.721Z,98.85
2018-04-23T03:35:36.633Z,99.24
2018-04-23T03:36:36.541Z,99.14
2018-04-23T03:37:36.454Z,98.57
2018-04-23T03:38:36.393Z,98.18
2018-04-23T03:39:36.276Z,97.99
2018-04-23T03:40:36.185Z,97.99
2018-04-23T03:41:36.097Z,97.18
2018-04-23T03:42:36.006Z,97.56
2018-04-23T03:43:35.945Z,97.47
2018-04-23T03:44:35.828Z,97.56
2018-04-23T03:45:35.736Z,97.66
2018-04-23T03:46:35.650Z,97.47
2018-04-23T03:47:35.560Z,97.47
2018-04-23T03:48:35.502Z,97.18
2018-04-23T03:49:35.381Z,98.24
2018-04-23T03:50:35.309Z,98.04
2018-04-23T03:51:35.205Z,98.09
2018-04-23T03:52:35.113Z,98.66
2018-04-23T03:53:35.055Z,98.47
2018-04-23T03:54:34.934Z,98.66
2018-04-23T03:55:34.846Z,99.14
2018-04-23T03:56:34.754Z,98.28
2018-04-23T03:57:34.674Z,99.04
2018-04-23T03:58:34.609Z,99.62
2018-04-23T03:59:34.488Z,99.62
2018-04-23T04:00:34.400Z,99.62
2018-04-23T04:01:34.311Z,99.43
2018-04-23T04:02:34.229Z,99.62
2018-04-23T04:03:34.160Z,99.52
2018-04-23T04:04:34.047Z,99.99
2018-04-23T04:05:33.952Z,99.99
2018-04-23T04:06:33.865Z,99.99
2018-04-23T04:07:33.777Z,99.52
2018-04-23T04:08:33.718Z,99.43
2018-04-23T04:09:33.598Z,99.99
2018-04-23T04:10:33.506Z,99.43
2018-04-23T04:11:33.420Z,99.52
2018-04-23T04:12:33.329Z,99.52
2018-04-23T04:13:33.271Z,99.99
2018-04-23T04:14:33.150Z,99.52
2018-04-23T04:15:33.063Z,99.99
2018-04-23T04:16:33.063Z,99.99
2018-04-23T04:17:32.883Z,99.99
2018-04-23T04:18:32.825Z,99.99
2018-04-23T04:19:32.705Z,99.99
2018-04-23T04:20:32.612Z,99.99
2018-04-23T04:21:32.522Z,99.99
2018-04-23T04:22:33.045Z,99.71
2018-04-23T04:23:32.468Z,99.62
2018-04-23T04:24:32.257Z,99.99
2018-04-23T04:25:32.167Z,99.99
2018-04-23T04:26:32.095Z,99.99
2018-04-23T04:27:31.992Z,99.99
2018-04-23T04:28:31.899Z,99.99
2018-04-23T04:29:31.838Z,99.99
2018-04-23T04:30:31.819Z,99.99
2018-04-23T04:31:31.645Z,99.99
2018-04-23T04:32:31.540Z,99.99
2018-04-23T04:33:31.453Z,99.99
2018-04-23T04:34:31.397Z,99.99
2018-04-23T04:35:31.344Z,99.99
2018-04-23T04:36:31.186Z,99.99
2018-04-23T04:37:31.186Z,99.99
2018-04-23T04:38:31.009Z,99.99
2018-04-23T04:39:30.943Z,99.99
2018-04-23T04:40:30.827Z,99.99
2018-04-23T04:41:30.737Z,99.99
2018-04-23T04:42:30.646Z,99.99
2018-04-23T04:43:30.560Z,99.99
2018-04-23T04:44:30.591Z,99.99
2018-04-23T04:45:30.381Z,99.81
2018-04-23T04:46:30.288Z,99.52
2018-04-23T04:47:30.199Z,99.24
2018-04-23T04:48:30.110Z,99.19
2018-04-23T04:49:30.049Z,98.24
2018-04-23T04:50:29.931Z,98.33
2018-04-23T04:51:29.946Z,98.33
2018-04-23T04:52:29.753Z,97.08
2018-04-23T04:53:29.661Z,97.66
2018-04-23T04:54:29.605Z,97.08
2018-04-23T04:55:29.486Z,97.18
2018-04-23T04:56:29.397Z,97.18
2018-04-23T04:57:29.306Z,96.32
2018-04-23T04:58:29.316Z,97.75
2018-04-23T04:59:29.157Z,97.66
2018-04-23T05:00:29.040Z,97.47
2018-04-23T05:01:28.953Z,99.76
2018-04-23T05:02:28.864Z,98.61
2018-04-23T05:03:28.784Z,97.85
2018-04-23T05:04:28.713Z,99.38
2018-04-23T05:05:30.555Z,99.48
2018-04-23T05:06:28.508Z,98.52
2018-04-23T05:07:28.427Z,97.28
2018-04-23T05:08:28.327Z,98.09
2018-04-23T05:09:28.271Z,97.61
2018-04-23T05:10:28.153Z,97.52
2018-04-23T05:11:28.061Z,96.75
2018-04-23T05:12:28.072Z,96.08
2018-04-23T05:13:27.885Z,96.47
2018-04-23T05:14:27.829Z,95.03
2018-04-23T05:15:27.711Z,94.69
2018-04-23T05:16:27.625Z,94.12
2018-04-23T05:17:27.530Z,93.74
2018-04-23T05:18:27.445Z,93.16
2018-04-23T05:19:27.476Z,92.78
2018-04-23T05:20:27.265Z,92.49
2018-04-23T05:21:27.178Z,92.40
2018-04-23T05:22:27.087Z,94.50
2018-04-23T05:23:27.001Z,93.35
2018-04-23T05:24:26.938Z,92.78
2018-04-23T05:25:26.933Z,94.12
2018-04-23T05:26:26.735Z,95.17
2018-04-23T05:27:26.649Z,94.50
2018-04-23T05:28:26.559Z,94.12
2018-04-23T05:29:26.475Z,95.65
2018-04-23T05:30:26.412Z,96.32
2018-04-23T05:31:26.301Z,97.38
2018-04-23T05:32:26.207Z,97.56
2018-04-23T05:33:26.215Z,97.38
2018-04-23T05:34:26.033Z,98.14
2018-04-23T05:35:25.974Z,98.05
2018-04-23T05:36:25.851Z,97.28
2018-04-23T05:37:25.766Z,98.24
2018-04-23T05:38:25.679Z,97.75
2018-04-23T05:39:25.607Z,97.38
2018-04-23T05:40:25.530Z,99.00
2018-04-23T05:41:25.414Z,99.77
2018-04-23T05:42:25.327Z,98.05
2018-04-23T05:43:25.242Z,97.38
2018-04-23T05:44:25.152Z,98.24
2018-04-23T05:45:25.092Z,97.28
2018-04-23T05:46:24.975Z,97.66
2018-04-23T05:47:24.887Z,97.28
2018-04-23T05:48:24.799Z,95.94
2018-04-23T05:49:24.713Z,95.75
2018-04-23T05:50:24.658Z,97.56
2018-04-23T05:51:24.535Z,96.27
2018-04-23T05:52:24.446Z,95.41
2018-04-23T05:53:24.359Z,94.17
2018-04-23T05:54:24.275Z,94.84
2018-04-23T05:55:24.215Z,94.93
2018-04-23T05:56:24.097Z,96.37
2018-04-23T05:57:24.009Z,95.22
2018-04-23T05:58:23.925Z,96.37
2018-04-23T05:59:23.839Z,96.84
2018-04-23T06:00:23.777Z,95.56
2018-04-23T06:01:23.656Z,95.98
2018-04-23T06:02:23.570Z,94.89
2018-04-23T06:03:23.483Z,94.45
2018-04-23T06:04:23.395Z,94.21
2018-04-23T06:05:23.341Z,94.79
2018-04-23T06:06:23.220Z,93.35
2018-04-23T06:07:23.133Z,91.72
2018-04-23T06:08:23.045Z,92.20
2018-04-23T06:09:22.956Z,91.14
2018-04-23T06:10:22.897Z,92.10
2018-04-23T06:11:22.783Z,93.44
2018-04-23T06:12:22.695Z,92.30
2018-04-23T06:13:22.609Z,93.83
2018-04-23T06:14:22.563Z,96.61
2018-04-23T06:15:22.462Z,96.03
2018-04-23T06:16:22.346Z,95.07
2018-04-23T06:17:22.261Z,93.63
2018-04-23T06:18:22.173Z,95.36
2018-04-23T06:19:22.083Z,94.21
2018-04-23T06:20:22.032Z,93.16
2018-04-23T06:21:21.911Z,94.50
2018-04-23T06:22:21.824Z,95.84
2018-04-23T06:23:21.739Z,94.40
2018-04-23T06:24:21.653Z,94.40
2018-04-23T06:25:21.592Z,97.09
2018-04-23T06:26:21.476Z,96.42
2018-04-23T06:27:21.392Z,94.21
2018-04-23T06:28:21.299Z,96.99
2018-04-23T06:29:21.224Z,98.72
2018-04-23T06:30:21.127Z,98.33
2018-04-23T06:31:21.068Z,98.24
2018-04-23T06:32:20.955Z,98.24
2018-04-23T06:33:20.869Z,96.89
2018-04-23T06:34:20.788Z,96.32
2018-04-23T06:35:20.699Z,95.94
2018-04-23T06:36:20.637Z,96.51
2018-04-23T06:37:20.516Z,95.79
2018-04-23T06:38:20.432Z,95.94
2018-04-23T06:39:20.350Z,96.18
2018-04-23T06:40:20.278Z,94.79
2018-04-23T06:41:20.200Z,95.03
2018-04-23T06:42:20.182Z,96.08
2018-04-23T06:43:20.000Z,91.67
2018-04-23T06:44:19.910Z,89.70
2018-04-23T06:45:19.826Z,90.08
2018-04-23T06:46:19.835Z,90.85
2018-04-23T06:47:19.653Z,92.29
2018-04-23T06:48:19.565Z,89.79
2018-04-23T06:49:19.571Z,89.12
2018-04-23T06:50:19.392Z,87.78
2018-04-23T06:51:19.338Z,89.51
2018-04-23T06:52:19.219Z,88.07
2018-04-23T06:53:19.132Z,88.65
2018-04-23T06:54:19.047Z,87.21
2018-04-23T06:55:18.964Z,88.49
2018-04-23T06:56:18.998Z,89.84
2018-04-23T06:57:18.788Z,87.68
2018-04-23T06:58:18.704Z,84.70
2018-04-23T06:59:18.616Z,85.47
2018-04-23T07:00:18.531Z,88.39
2018-04-23T07:01:18.475Z,86.72
2018-04-23T07:02:18.357Z,83.78
2018-04-23T07:03:18.369Z,83.54
2018-04-23T07:04:18.193Z,84.31
2018-04-23T07:05:18.101Z,84.66
2018-04-23T07:06:18.044Z,84.75
2018-04-23T07:07:17.932Z,85.24
2018-04-23T07:08:17.844Z,85.24
2018-04-23T07:09:17.760Z,86.19
2018-04-23T07:10:17.766Z,86.38
2018-04-23T07:11:17.620Z,87.05
2018-04-23T07:12:17.501Z,87.19
2018-04-23T07:13:17.446Z,87.01
2018-04-23T07:14:17.330Z,87.29
2018-04-23T07:15:17.247Z,86.52
2018-04-23T07:16:17.191Z,86.57
2018-04-23T07:17:17.168Z,86.09
2018-04-23T07:18:16.993Z,86.32
2018-04-23T07:19:16.902Z,83.06
2018-04-23T07:20:16.818Z,82.14
2018-04-23T07:21:16.764Z,80.21
2018-04-23T07:22:16.650Z,79.73
2018-04-23T07:23:16.579Z,79.63
2018-04-23T07:24:16.590Z,79.35
2018-04-23T07:25:16.393Z,79.35
2018-04-23T07:26:16.340Z,78.19
2018-04-23T07:27:16.230Z,78.23
2018-04-23T07:28:16.139Z,78.90
2018-04-23T07:29:16.093Z,77.53
2018-04-23T07:30:15.973Z,75.36
2018-04-23T07:31:16.011Z,73.95
2018-04-23T07:32:15.811Z,75.49
2018-04-23T07:33:15.728Z,69.93
2018-04-23T07:34:15.642Z,70.13
2018-04-23T07:35:15.556Z,67.85
2018-04-23T07:36:15.505Z,67.78
2018-04-23T07:37:15.486Z,66.56
2018-04-23T07:38:15.307Z,65.82
2018-04-23T07:39:15.225Z,64.47
2018-04-23T07:40:15.144Z,61.95
2018-04-23T07:41:15.062Z,62.56
2018-04-23T07:42:15.009Z,62.18
2018-04-23T07:43:14.898Z,61.24
2018-04-23T07:44:14.813Z,60.37
2018-04-23T07:45:14.830Z,59.69
2018-04-23T07:46:14.657Z,60.63
2018-04-23T07:47:14.602Z,59.79
2018-04-23T07:48:14.493Z,59.21
2018-04-23T07:49:14.410Z,60.08
2018-04-23T07:50:14.329Z,59.69
2018-04-23T07:51:14.248Z,61.21
2018-04-23T07:52:14.289Z,62.37
2018-04-23T07:53:14.086Z,61.27
2018-04-23T07:54:14.034Z,62.37
2018-04-23T07:55:13.931Z,63.24
2018-04-23T07:56:13.845Z,62.59
2018-04-23T07:57:13.795Z,60.27
2018-04-23T07:58:13.795Z,60.44
2018-04-23T07:59:13.604Z,60.41
2018-04-23T08:00:13.524Z,58.72
2018-04-23T08:01:13.444Z,59.66
2018-04-23T08:02:13.393Z,59.40
2018-04-23T08:03:13.285Z,59.79
2018-04-23T08:04:13.206Z,59.92
2018-04-23T08:05:13.130Z,60.21
2018-04-23T08:06:13.048Z,60.41
2018-04-23T08:07:12.999Z,60.44
2018-04-23T08:08:12.885Z,59.15
2018-04-23T08:09:12.809Z,59.53
2018-04-23T08:10:12.729Z,60.50
2018-04-23T08:11:12.647Z,60.24
2018-04-23T08:12:12.630Z,59.95
2018-04-23T08:13:12.489Z,59.31
2018-04-23T08:14:12.410Z,58.07
2018-04-23T08:15:12.332Z,58.07
2018-04-23T08:16:12.253Z,56.21
2018-04-23T08:17:12.201Z,56.43
2018-04-23T08:18:12.091Z,55.78
2018-04-23T08:19:12.013Z,56.85
2018-04-23T08:20:11.935Z,56.56
2018-04-23T08:21:11.858Z,55.30
2018-04-23T08:22:11.809Z,56.75
2018-04-23T08:23:11.696Z,55.78
2018-04-23T08:24:11.617Z,55.36
2018-04-23T08:25:11.540Z,55.49
2018-04-23T08:26:11.460Z,55.88
2018-04-23T08:27:11.413Z,55.85
2018-04-23T08:28:11.302Z,56.24
2018-04-23T08:29:11.224Z,56.07
2018-04-23T08:30:11.146Z,56.75
2018-04-23T08:31:11.067Z,55.58
2018-04-23T08:32:11.017Z,56.07
2018-04-23T08:33:10.922Z,56.65
2018-04-23T08:34:10.834Z,55.93
2018-04-23T08:35:10.750Z,54.67
2018-04-23T08:36:10.671Z,53.80
2018-04-23T08:37:10.622Z,53.12
2018-04-23T08:38:10.517Z,52.93
2018-04-23T08:39:10.436Z,52.44
2018-04-23T08:40:10.363Z,52.44
2018-04-23T08:41:10.280Z,52.93
2018-04-23T08:42:10.234Z,53.55
2018-04-23T08:43:10.127Z,53.67
2018-04-23T08:44:10.045Z,54.64
2018-04-23T08:45:09.967Z,54.84
2018-04-23T08:46:09.890Z,52.93
2018-04-23T08:47:09.813Z,52.95
2018-04-23T08:48:09.804Z,54.02
2018-04-23T08:49:09.655Z,53.80
2018-04-23T08:50:09.575Z,52.25
2018-04-23T08:51:09.501Z,52.64
2018-04-23T08:52:09.423Z,53.89
2018-04-23T08:53:09.376Z,54.72
2018-04-23T08:54:09.267Z,52.88
2018-04-23T08:55:09.191Z,50.96
2018-04-23T08:56:09.110Z,50.68
2018-04-23T08:57:09.057Z,50.48
2018-04-23T08:58:08.986Z,49.54
2018-04-23T08:59:08.879Z,50.51
2018-04-23T09:00:08.800Z,50.16
2018-04-23T09:01:08.722Z,49.05
2018-04-23T09:02:08.646Z,48.39
2018-04-23T09:03:08.596Z,47.59
2018-04-23T09:04:08.490Z,49.17
2018-04-23T09:05:08.414Z,49.24
2018-04-23T09:06:08.338Z,49.05
2018-04-23T09:07:08.259Z,50.58
2018-04-23T09:08:08.246Z,49.07
2018-04-23T09:09:08.104Z,48.27
2018-04-23T09:10:08.029Z,49.15
2018-04-23T09:11:07.950Z,49.32
2018-04-23T09:12:07.874Z,50.36
2018-04-23T09:13:07.825Z,49.97
2018-04-23T09:14:07.724Z,50.16
2018-04-23T09:15:07.644Z,50.38
2018-04-23T09:16:07.655Z,50.29
2018-04-23T09:17:07.492Z,49.17
2018-04-23T09:18:07.445Z,48.90
2018-04-23T09:19:07.336Z,49.29
2018-04-23T09:20:07.260Z,50.48
2018-04-23T09:21:07.180Z,48.75
2018-04-23T09:22:07.105Z,47.13
2018-04-23T09:23:07.168Z,45.11
2018-04-23T09:24:06.953Z,45.09
2018-04-23T09:25:06.881Z,45.75
2018-04-23T09:26:06.798Z,45.94
2018-04-23T09:27:06.722Z,46.64
2018-04-23T09:28:06.676Z,47.42
2018-04-23T09:29:06.567Z,45.89
2018-04-23T09:30:06.591Z,46.84
2018-04-23T09:31:06.418Z,47.32
2018-04-23T09:32:06.350Z,47.32
2018-04-23T09:33:06.292Z,47.13
2018-04-23T09:34:06.189Z,47.64
2018-04-23T09:35:06.115Z,46.96
2018-04-23T09:36:06.036Z,46.67
2018-04-23T09:37:06.051Z,47.81
2018-04-23T09:38:05.918Z,45.89
2018-04-23T09:39:05.807Z,46.15
2018-04-23T09:40:05.730Z,45.11
2018-04-23T09:41:05.654Z,45.35
2018-04-23T09:42:05.581Z,44.59
2018-04-23T09:43:05.538Z,43.54
2018-04-23T09:44:05.519Z,42.98
2018-04-23T09:45:05.349Z,42.57
2018-04-23T09:46:05.275Z,43.91
2018-04-23T09:47:05.202Z,42.55
2018-04-23T09:48:05.157Z,43.25
2018-04-23T09:49:05.052Z,44.40
2018-04-23T09:50:05.017Z,44.59
2018-04-23T09:51:04.998Z,43.93
2018-04-23T09:52:04.823Z,42.74
2018-04-23T09:53:04.783Z,46.08
2018-04-23T09:54:04.672Z,45.32
2018-04-23T09:55:04.598Z,45.32
2018-04-23T09:56:04.520Z,43.99
2018-04-23T09:57:04.447Z,44.31
2018-04-23T09:58:05.530Z,45.69
2018-04-23T09:59:04.327Z,44.33
2018-04-23T10:00:04.224Z,44.68
2018-04-23T10:01:04.145Z,45.67
2018-04-23T10:02:04.071Z,45.75
2018-04-23T10:03:04.026Z,45.53
2018-04-23T10:04:03.920Z,45.87
2018-04-23T10:05:03.937Z,45.65
2018-04-23T10:06:03.772Z,46.60
2018-04-23T10:07:03.693Z,47.35
2018-04-23T10:08:03.617Z,47.69
2018-04-23T10:09:03.575Z,49.41
2018-04-23T10:10:03.467Z,50.55
2018-04-23T10:11:03.397Z,51.04
2018-04-23T10:12:03.419Z,51.50
2018-04-23T10:13:03.242Z,54.66
2018-04-23T10:14:03.193Z,55.34
2018-04-23T10:15:03.087Z,54.93
2018-04-23T10:16:03.009Z,55.51
2018-04-23T10:17:02.931Z,56.63
2018-04-23T10:18:02.857Z,57.29
2018-04-23T10:19:02.903Z,57.09
2018-04-23T10:20:02.704Z,58.32
2018-04-23T10:21:02.676Z,59.25
2018-04-23T10:22:02.543Z,60.38
2018-04-23T10:23:02.475Z,61.06
2018-04-23T10:24:02.423Z,60.86
2018-04-23T10:25:02.430Z,60.74
2018-04-23T10:26:02.231Z,59.65
2018-04-23T10:27:02.151Z,60.39
2018-04-23T10:28:02.070Z,61.90
2018-04-23T10:29:02.025Z,62.19
2018-04-23T10:30:01.911Z,63.99
2018-04-23T10:31:01.832Z,67.90
2018-04-23T10:32:01.756Z,74.21
2018-04-23T10:33:01.667Z,84.31
2018-04-23T10:34:01.618Z,96.70
2018-04-23T10:35:01.517Z,99.87
2018-04-23T10:36:01.425Z,99.99
2018-04-23T10:37:01.340Z,99.99
2018-04-23T10:38:01.266Z,99.99
2018-04-23T10:39:01.209Z,99.99
2018-04-23T10:40:01.092Z,99.99
2018-04-23T10:41:01.009Z,99.99
2018-04-23T10:42:00.924Z,99.99
2018-04-23T10:43:00.841Z,99.99
2018-04-23T10:44:00.793Z,99.99
2018-04-23T10:45:00.673Z,99.99
2018-04-23T10:46:00.586Z,99.99
2018-04-23T10:47:00.500Z,99.99
2018-04-23T10:48:00.421Z,99.99
2018-04-23T10:49:00.359Z,99.99
2018-04-23T10:50:00.246Z,99.99
2018-04-23T10:51:00.162Z,99.99
2018-04-23T10:52:00.071Z,99.99
2018-04-23T10:52:59.982Z,99.99
2018-04-23T10:53:59.929Z,99.99
2018-04-23T10:54:59.815Z,99.99
2018-04-23T10:55:59.724Z,99.99
2018-04-23T10:56:59.639Z,99.99
2018-04-23T10:57:59.554Z,99.99
2018-04-23T10:58:59.496Z,99.99
2018-04-23T10:59:59.376Z,99.99
2018-04-23T11:00:59.287Z,99.99
2018-04-23T11:01:59.200Z,99.99
2018-04-23T11:02:59.116Z,99.99
2018-04-23T11:03:59.027Z,99.99
2018-04-23T11:04:58.969Z,99.99
2018-04-23T11:05:58.850Z,99.99
2018-04-23T11:06:58.764Z,99.99
2018-04-23T11:07:58.675Z,99.99
2018-04-23T11:08:58.590Z,99.99
2018-04-23T11:09:58.535Z,99.99
2018-04-23T11:10:59.235Z,99.99
2018-04-23T11:11:58.320Z,99.99
2018-04-23T11:12:58.232Z,99.99
2018-04-23T11:13:58.154Z,99.99
2018-04-23T11:14:58.087Z,99.99
2018-04-23T11:15:57.968Z,99.99
2018-04-23T11:16:57.880Z,99.99
2018-04-23T11:17:57.801Z,99.99
2018-04-23T11:18:57.704Z,99.99
2018-04-23T11:19:57.646Z,99.99
2018-04-23T11:20:57.527Z,99.99
2018-04-23T11:21:57.439Z,99.99
2018-04-23T11:22:57.352Z,99.99
2018-04-23T11:23:57.259Z,99.99
2018-04-23T11:24:57.206Z,99.99
2018-04-23T11:25:57.085Z,99.99
2018-04-23T11:26:56.996Z,99.99
2018-04-23T11:27:56.908Z,99.99
2018-04-23T11:28:56.820Z,99.99
2018-04-23T11:29:56.758Z,99.99
2018-04-23T11:30:56.644Z,99.99
2018-04-23T11:31:56.553Z,99.99
2018-04-23T11:32:56.464Z,99.99
2018-04-23T11:33:56.380Z,99.99
2018-04-23T11:34:56.322Z,99.99
2018-04-23T11:35:56.198Z,99.99
2018-04-23T11:36:56.112Z,99.99
2018-04-23T11:37:56.023Z,99.99
2018-04-23T11:38:55.949Z,99.99
2018-04-23T11:39:55.882Z,99.99
2018-04-23T11:40:55.760Z,99.99
2018-04-23T11:41:55.759Z,99.99
2018-04-23T11:42:55.588Z,99.99
2018-04-23T11:43:55.496Z,99.99
2018-04-23T11:44:55.436Z,99.99
2018-04-23T11:45:55.316Z,99.99
2018-04-23T11:46:55.231Z,99.99
2018-04-23T11:47:55.142Z,99.99
2018-04-23T11:48:55.147Z,99.99
2018-04-23T11:49:55.010Z,99.99
2018-04-23T11:50:54.883Z,99.99
2018-04-23T11:51:54.789Z,99.99
2018-04-23T11:52:54.702Z,99.99
2018-04-23T11:53:54.615Z,99.99
2018-04-23T11:54:54.556Z,99.99
2018-04-23T11:55:54.533Z,99.99
2018-04-23T11:56:54.352Z,99.99
2018-04-23T11:57:54.269Z,99.99
2018-04-23T11:58:54.174Z,99.99
2018-04-23T11:59:54.120Z,99.99
2018-04-23T12:00:54.002Z,99.99
2018-04-23T12:01:53.913Z,99.99
2018-04-23T12:02:53.921Z,99.99
2018-04-23T12:03:53.739Z,99.99
2018-04-23T12:04:53.694Z,99.99
2018-04-23T12:05:53.563Z,99.99
2018-04-23T12:06:53.476Z,99.99
2018-04-23T12:07:53.388Z,99.99
2018-04-23T12:08:53.303Z,99.99
2018-04-23T12:09:53.341Z,99.99
2018-04-23T12:10:53.164Z,99.99
2018-04-23T12:11:53.041Z,99.99
2018-04-23T12:12:52.952Z,99.99
2018-04-23T12:13:52.866Z,99.99
2018-04-23T12:14:52.779Z,99.99
2018-04-23T12:15:52.722Z,99.99
2018-04-23T12:16:52.698Z,99.99
2018-04-23T12:17:52.513Z,99.99
2018-04-23T12:18:52.430Z,99.99
2018-04-23T12:19:52.346Z,99.99
2018-04-23T12:20:52.290Z,99.99
2018-04-23T12:21:52.167Z,99.99
2018-04-23T12:22:52.094Z,99.99
2018-04-23T12:23:52.087Z,99.99
2018-04-23T12:24:51.910Z,99.99
2018-04-23T12:25:51.847Z,99.99
2018-04-23T12:26:51.730Z,99.99
2018-04-23T12:27:51.644Z,99.99
2018-04-23T12:28:51.557Z,99.99
2018-04-23T12:29:51.469Z,99.99
2018-04-23T12:30:51.509Z,99.99
2018-04-23T12:31:51.295Z,99.99
2018-04-23T12:32:51.208Z,99.99
2018-04-23T12:33:51.122Z,99.99
2018-04-23T12:34:51.034Z,99.99
2018-04-23T12:35:50.976Z,99.99
2018-04-23T12:36:50.861Z,99.99
2018-04-23T12:37:50.868Z,99.99
2018-04-23T12:38:50.686Z,99.99
2018-04-23T12:39:50.600Z,99.99
2018-04-23T12:40:50.544Z,99.99
2018-04-23T12:41:50.426Z,99.99
2018-04-23T12:42:50.338Z,99.99
2018-04-23T12:43:50.274Z,99.99
2018-04-23T12:44:50.274Z,99.99
2018-04-23T12:45:50.156Z,99.99
2018-04-23T12:46:49.992Z,99.99
2018-04-23T12:47:49.905Z,99.99
2018-04-23T12:48:49.819Z,99.99
2018-04-23T12:49:49.735Z,99.99
2018-04-23T12:50:49.686Z,99.99
2018-04-23T12:51:49.652Z,99.99